sensor_id;sensor_type;location;lat;lon;timestamp;pressure;altitude;pressure_sealevel;temperature;humidity
54270;BME280;40181;51.560;13.000;2023-02-28T00:01:59;102183.59;;;0.99;74.04
54270;BME280;40181;51.560;13.000;2023-02-28T00:04:31;102184.09;;;1.05;73.54
54270;BME280;40181;51.560;13.000;2023-02-28T00:07:00;102174.59;;;1.16;73.25
54270;BME280;40181;51.560;13.000;2023-02-28T00:09:29;102164.91;;;0.91;73.85
54270;BME280;40181;51.560;13.000;2023-02-28T00:11:58;102169.28;;;0.92;74.51
54270;BME280;40181;51.560;13.000;2023-02-28T00:14:30;102162.50;;;1.04;73.28
54270;BME280;40181;51.560;13.000;2023-02-28T00:16:59;102171.03;;;1.03;73.53
54270;BME280;40181;51.560;13.000;2023-02-28T00:19:30;102168.69;;;1.06;73.49
54270;BME280;40181;51.560;13.000;2023-02-28T00:21:59;102168.44;;;1.03;73.22
54270;BME280;40181;51.560;13.000;2023-02-28T00:24:28;102171.88;;;0.92;72.23
54270;BME280;40181;51.560;13.000;2023-02-28T00:26:57;102170.00;;;1.01;72.28
54270;BME280;40181;51.560;13.000;2023-02-28T00:29:26;102171.81;;;1.02;72.09
54270;BME280;40181;51.560;13.000;2023-02-28T00:31:55;102179.66;;;0.92;72.23
54270;BME280;40181;51.560;13.000;2023-02-28T00:34:24;102170.88;;;0.90;72.31
54270;BME280;40181;51.560;13.000;2023-02-28T00:36:56;102171.22;;;0.94;72.19
54270;BME280;40181;51.560;13.000;2023-02-28T00:39:25;102174.16;;;0.99;72.04
54270;BME280;40181;51.560;13.000;2023-02-28T00:41:54;102162.59;;;1.06;71.75
54270;BME280;40181;51.560;13.000;2023-02-28T00:44:23;102167.00;;;1.07;72.03
54270;BME280;40181;51.560;13.000;2023-02-28T00:46:52;102165.91;;;1.15;71.86
54270;BME280;40181;51.560;13.000;2023-02-28T00:49:21;102165.56;;;1.10;72.17
54270;BME280;40181;51.560;13.000;2023-02-28T00:51:51;102168.88;;;0.98;72.08
54270;BME280;40181;51.560;13.000;2023-02-28T00:54:24;102168.09;;;0.99;72.71
54270;BME280;40181;51.560;13.000;2023-02-28T00:56:53;102179.66;;;0.92;73.66
54270;BME280;40181;51.560;13.000;2023-02-28T00:59:22;102170.06;;;0.91;73.33
54270;BME280;40181;51.560;13.000;2023-02-28T01:01:51;102171.22;;;0.94;73.77
54270;BME280;40181;51.560;13.000;2023-02-28T01:04:20;102167.63;;;0.92;74.10
54270;BME280;40181;51.560;13.000;2023-02-28T01:06:49;102181.44;;;0.93;74.19
54270;BME280;40181;51.560;13.000;2023-02-28T01:09:19;102168.94;;;0.87;74.72
54270;BME280;40181;51.560;13.000;2023-02-28T01:11:51;102166.59;;;0.90;74.94
54270;BME280;40181;51.560;13.000;2023-02-28T01:14:20;102164.31;;;0.83;75.46
54270;BME280;40181;51.560;13.000;2023-02-28T01:16:49;102182.34;;;0.93;74.95
54270;BME280;40181;51.560;13.000;2023-02-28T01:19:19;102177.75;;;0.79;75.33
54270;BME280;40181;51.560;13.000;2023-02-28T01:21:48;102173.75;;;0.82;75.20
54270;BME280;40181;51.560;13.000;2023-02-28T01:24:17;102167.34;;;0.67;75.47
54270;BME280;40181;51.560;13.000;2023-02-28T01:26:48;102166.25;;;0.75;75.58
54270;BME280;40181;51.560;13.000;2023-02-28T01:29:17;102171.03;;;0.81;75.83
54270;BME280;40181;51.560;13.000;2023-02-28T01:31:46;102167.31;;;0.77;75.27
54270;BME280;40181;51.560;13.000;2023-02-28T01:34:15;102172.34;;;0.76;75.28
54270;BME280;40181;51.560;13.000;2023-02-28T01:36:45;102169.63;;;0.74;75.54
54270;BME280;40181;51.560;13.000;2023-02-28T01:39:14;102158.94;;;0.69;75.82
54270;BME280;40181;51.560;13.000;2023-02-28T01:41:43;102164.72;;;0.77;75.07
54270;BME280;40181;51.560;13.000;2023-02-28T01:47:32;102164.00;;;0.68;75.76
54270;BME280;40181;51.560;13.000;2023-02-28T01:50:05;102163.31;;;0.71;75.45
54270;BME280;40181;51.560;13.000;2023-02-28T01:52:37;102157.50;;;0.73;75.05
54270;BME280;40181;51.560;13.000;2023-02-28T01:55:08;102171.94;;;0.81;74.74
54270;BME280;40181;51.560;13.000;2023-02-28T01:57:42;102154.31;;;0.65;75.29
54270;BME280;40181;51.560;13.000;2023-02-28T02:00:18;102151.31;;;0.71;74.55
54270;BME280;40181;51.560;13.000;2023-02-28T02:02:54;102152.75;;;0.67;74.55
54270;BME280;40181;51.560;13.000;2023-02-28T02:05:28;102150.81;;;0.87;74.51
54270;BME280;40181;51.560;13.000;2023-02-28T02:08:03;102158.16;;;0.71;75.24
54270;BME280;40181;51.560;13.000;2023-02-28T02:10:36;102152.31;;;0.73;74.60
54270;BME280;40181;51.560;13.000;2023-02-28T02:13:17;102140.16;;;0.72;74.80
54270;BME280;40181;51.560;13.000;2023-02-28T02:16:11;102141.25;;;0.86;74.73
54270;BME280;40181;51.560;13.000;2023-02-28T02:18:53;102141.75;;;0.70;74.88
54270;BME280;40181;51.560;13.000;2023-02-28T02:24:58;102141.31;;;0.76;73.64
54270;BME280;40181;51.560;13.000;2023-02-28T02:31:10;102133.84;;;0.68;73.64
54270;BME280;40181;51.560;13.000;2023-02-28T02:34:28;102127.38;;;0.74;73.19
54270;BME280;40181;51.560;13.000;2023-02-28T02:37:21;102128.91;;;0.72;73.83
54270;BME280;40181;51.560;13.000;2023-02-28T02:40:02;102142.97;;;0.75;73.38
54270;BME280;40181;51.560;13.000;2023-02-28T02:42:39;102129.16;;;0.75;73.18
54270;BME280;40181;51.560;13.000;2023-02-28T02:45:16;102136.13;;;0.76;73.54
54270;BME280;40181;51.560;13.000;2023-02-28T02:47:48;102128.03;;;0.71;73.87
54270;BME280;40181;51.560;13.000;2023-02-28T02:50:22;102129.94;;;0.74;73.76
54270;BME280;40181;51.560;13.000;2023-02-28T02:52:56;102136.19;;;0.65;74.32
54270;BME280;40181;51.560;13.000;2023-02-28T02:55:29;102138.13;;;0.68;73.30
54270;BME280;40181;51.560;13.000;2023-02-28T02:58:03;102146.53;;;0.65;73.75
54270;BME280;40181;51.560;13.000;2023-02-28T03:00:38;102135.50;;;0.78;73.85
54270;BME280;40181;51.560;13.000;2023-02-28T03:03:12;102138.66;;;0.86;73.45
54270;BME280;40181;51.560;13.000;2023-02-28T03:05:47;102134.03;;;0.82;73.78
54270;BME280;40181;51.560;13.000;2023-02-28T03:08:17;102132.78;;;0.77;72.64
54270;BME280;40181;51.560;13.000;2023-02-28T03:10:49;102138.97;;;0.79;nan
54270;BME280;40181;51.560;13.000;2023-02-28T03:13:37;102141.66;;;0.58;73.35
54270;BME280;40181;51.560;13.000;2023-02-28T03:16:36;102136.06;;;0.64;74.00
54270;BME280;40181;51.560;13.000;2023-02-28T03:19:42;102143.47;;;0.59;73.86
54270;BME280;40181;51.560;13.000;2023-02-28T03:22:27;102144.75;;;0.64;73.83
54270;BME280;40181;51.560;13.000;2023-02-28T03:25:07;102133.34;;;0.62;73.08
54270;BME280;40181;51.560;13.000;2023-02-28T03:27:42;102139.03;;;0.68;73.68
54270;BME280;40181;51.560;13.000;2023-02-28T03:30:23;102138.72;;;0.76;73.10
54270;BME280;40181;51.560;13.000;2023-02-28T03:32:57;102148.28;;;0.77;73.12
54270;BME280;40181;51.560;13.000;2023-02-28T03:35:31;102136.78;;;0.73;72.47
54270;BME280;40181;51.560;13.000;2023-02-28T03:38:08;102145.22;;;0.71;72.06
54270;BME280;40181;51.560;13.000;2023-02-28T03:40:44;102147.38;;;0.76;72.32
54270;BME280;40181;51.560;13.000;2023-02-28T03:43:20;102148.94;;;0.74;72.21
54270;BME280;40181;51.560;13.000;2023-02-28T03:45:52;102143.31;;;0.58;72.30
54270;BME280;40181;51.560;13.000;2023-02-28T03:48:26;102153.94;;;0.61;72.32
54270;BME280;40181;51.560;13.000;2023-02-28T03:50:59;102150.56;;;0.62;72.23
54270;BME280;40181;51.560;13.000;2023-02-28T03:53:35;102153.31;;;0.53;72.49
54270;BME280;40181;51.560;13.000;2023-02-28T03:56:13;102147.41;;;0.44;73.25
54270;BME280;40181;51.560;13.000;2023-02-28T03:58:49;102151.22;;;0.59;72.86
54270;BME280;40181;51.560;13.000;2023-02-28T04:01:23;102158.81;;;0.35;73.44
54270;BME280;40181;51.560;13.000;2023-02-28T04:03:55;102153.34;;;0.43;73.53
54270;BME280;40181;51.560;13.000;2023-02-28T04:06:24;102148.31;;;0.44;73.17
54270;BME280;40181;51.560;13.000;2023-02-28T04:08:56;102161.09;;;0.43;73.09
54270;BME280;40181;51.560;13.000;2023-02-28T04:11:30;102165.50;;;0.44;72.82
54270;BME280;40181;51.560;13.000;2023-02-28T04:14:02;102156.72;;;0.41;73.27
54270;BME280;40181;51.560;13.000;2023-02-28T04:16:33;102156.50;;;0.38;73.17
54270;BME280;40181;51.560;13.000;2023-02-28T04:19:04;102165.50;;;0.44;72.97
54270;BME280;40181;51.560;13.000;2023-02-28T04:21:36;102163.19;;;0.47;72.39
54270;BME280;40181;51.560;13.000;2023-02-28T04:24:11;102170.75;;;0.23;72.18
54270;BME280;40181;51.560;13.000;2023-02-28T04:26:43;102172.09;;;0.40;71.86
54270;BME280;40181;51.560;13.000;2023-02-28T04:29:18;102163.97;;;0.46;72.28
54270;BME280;40181;51.560;13.000;2023-02-28T04:31:49;102170.75;;;0.23;73.25
54270;BME280;40181;51.560;13.000;2023-02-28T04:34:18;102175.78;;;0.21;73.09
54270;BME280;40181;51.560;13.000;2023-02-28T04:36:49;102172.66;;;0.36;72.57
54270;BME280;40181;51.560;13.000;2023-02-28T04:39:23;102185.06;;;0.30;72.65
54270;BME280;40181;51.560;13.000;2023-02-28T04:41:52;102172.66;;;0.36;72.87
54270;BME280;40181;51.560;13.000;2023-02-28T04:44:21;102176.28;;;0.27;73.29
54270;BME280;40181;51.560;13.000;2023-02-28T04:46:51;102174.22;;;0.34;72.50
54270;BME280;40181;51.560;13.000;2023-02-28T04:49:20;102175.78;;;0.21;73.10
54270;BME280;40181;51.560;13.000;2023-02-28T04:51:49;102178.47;;;0.33;72.97
54270;BME280;40181;51.560;13.000;2023-02-28T04:54:18;102173.09;;;0.20;73.54
54270;BME280;40181;51.560;13.000;2023-02-28T04:56:50;102171.78;;;0.15;73.90
54270;BME280;40181;51.560;13.000;2023-02-28T04:59:20;102179.78;;;0.18;74.00
54270;BME280;40181;51.560;13.000;2023-02-28T05:01:49;102173.88;;;0.19;74.07
54270;BME280;40181;51.560;13.000;2023-02-28T05:04:18;102173.56;;;0.26;74.34
54270;BME280;40181;51.560;13.000;2023-02-28T05:06:47;102183.28;;;0.18;74.24
54270;BME280;40181;51.560;13.000;2023-02-28T05:09:16;102165.84;;;0.16;74.50
54270;BME280;40181;51.560;13.000;2023-02-28T05:11:48;102170.91;;;0.14;74.28
54270;BME280;40181;51.560;13.000;2023-02-28T05:14:17;102168.56;;;0.17;73.77
54270;BME280;40181;51.560;13.000;2023-02-28T05:16:46;102175.16;;;0.13;74.50
54270;BME280;40181;51.560;13.000;2023-02-28T05:19:15;102177.00;;;0.04;74.64
54270;BME280;40181;51.560;13.000;2023-02-28T05:21:53;102187.59;;;-0.03;74.74
54270;BME280;40181;51.560;13.000;2023-02-28T05:24:25;102185.75;;;0.17;74.28
54270;BME280;40181;51.560;13.000;2023-02-28T05:26:56;102186.41;;;0.04;74.85
54270;BME280;40181;51.560;13.000;2023-02-28T05:29:25;102187.94;;;0.12;74.56
54270;BME280;40181;51.560;13.000;2023-02-28T05:31:54;102191.06;;;0.08;74.76
54270;BME280;40181;51.560;13.000;2023-02-28T05:34:23;102185.66;;;0.05;75.18
54270;BME280;40181;51.560;13.000;2023-02-28T05:36:52;102188.09;;;0.03;74.84
54270;BME280;40181;51.560;13.000;2023-02-28T05:39:21;102194.69;;;0.10;75.22
54270;BME280;40181;51.560;13.000;2023-02-28T05:41:51;102185.91;;;0.08;75.72
54270;BME280;40181;51.560;13.000;2023-02-28T05:44:23;102198.19;;;0.10;76.14
54270;BME280;40181;51.560;13.000;2023-02-28T05:46:52;102194.47;;;-0.04;75.90
54270;BME280;40181;51.560;13.000;2023-02-28T05:49:21;102203.63;;;-0.07;75.71
54270;BME280;40181;51.560;13.000;2023-02-28T05:51:50;102198.19;;;0.00;76.08
54270;BME280;40181;51.560;13.000;2023-02-28T05:54:19;102204.91;;;-0.02;76.02
54270;BME280;40181;51.560;13.000;2023-02-28T05:56:48;102208.41;;;-0.02;75.77
54270;BME280;40181;51.560;13.000;2023-02-28T05:59:17;102216.41;;;0.02;76.39
54270;BME280;40181;51.560;13.000;2023-02-28T06:01:49;102209.56;;;0.02;76.22
54270;BME280;40181;51.560;13.000;2023-02-28T06:04:19;102216.78;;;0.06;76.29
54270;BME280;40181;51.560;13.000;2023-02-28T06:06:49;102222.22;;;-0.01;76.75
54270;BME280;40181;51.560;13.000;2023-02-28T06:09:18;102234.50;;;-0.19;76.75
54270;BME280;40181;51.560;13.000;2023-02-28T06:11:48;102226.63;;;0.00;75.65
54270;BME280;40181;51.560;13.000;2023-02-28T06:14:18;102221.31;;;-0.02;75.27
54270;BME280;40181;51.560;13.000;2023-02-28T06:16:50;102223.38;;;0.03;75.06
54270;BME280;40181;51.560;13.000;2023-02-28T06:19:20;102224.81;;;0.09;75.13
54270;BME280;40181;51.560;13.000;2023-02-28T06:21:50;102235.91;;;-0.02;75.38
54270;BME280;40181;51.560;13.000;2023-02-28T06:24:20;102225.31;;;0.05;75.37
54270;BME280;40181;51.560;13.000;2023-02-28T06:26:50;102227.13;;;-0.04;75.16
54270;BME280;40181;51.560;13.000;2023-02-28T06:29:19;102229.84;;;0.08;74.90
54270;BME280;40181;51.560;13.000;2023-02-28T06:31:51;102234.22;;;0.19;74.45
54270;BME280;40181;51.560;13.000;2023-02-28T06:34:20;102235.66;;;0.05;74.32
54270;BME280;40181;51.560;13.000;2023-02-28T06:36:50;102237.22;;;0.03;74.00
54270;BME280;40181;51.560;13.000;2023-02-28T06:39:20;102252.97;;;0.06;74.74
54270;BME280;40181;51.560;13.000;2023-02-28T06:41:49;102248.97;;;-0.01;74.81
54270;BME280;40181;51.560;13.000;2023-02-28T06:44:18;102247.28;;;0.10;74.42
54270;BME280;40181;51.560;13.000;2023-02-28T06:46:48;102249.88;;;0.10;74.81
54270;BME280;40181;51.560;13.000;2023-02-28T06:49:19;102250.66;;;0.09;74.82
54270;BME280;40181;51.560;13.000;2023-02-28T06:51:48;102253.47;;;0.12;75.18
54270;BME280;40181;51.560;13.000;2023-02-28T06:54:17;102251.00;;;0.04;75.80
54270;BME280;40181;51.560;13.000;2023-02-28T06:56:46;102253.88;;;0.07;75.31
54270;BME280;40181;51.560;13.000;2023-02-28T06:59:15;102254.25;;;0.11;75.07
54270;BME280;40181;51.560;13.000;2023-02-28T07:01:44;102255.44;;;0.05;75.78
54270;BME280;40181;51.560;13.000;2023-02-28T07:04:16;102254.09;;;0.20;75.71
54270;BME280;40181;51.560;13.000;2023-02-28T07:06:45;102255.41;;;0.15;75.37
54270;BME280;40181;51.560;13.000;2023-02-28T07:09:14;102263.28;;;0.17;75.55
54270;BME280;40181;51.560;13.000;2023-02-28T07:11:44;102259.81;;;0.06;74.84
54270;BME280;40181;51.560;13.000;2023-02-28T07:14:14;102272.22;;;0.10;74.51
54270;BME280;40181;51.560;13.000;2023-02-28T07:16:43;102264.06;;;0.16;74.11
54270;BME280;40181;51.560;13.000;2023-02-28T07:19:12;102260.84;;;0.18;74.62
54270;BME280;40181;51.560;13.000;2023-02-28T07:21:44;102262.13;;;0.34;74.71
54270;BME280;40181;51.560;13.000;2023-02-28T07:24:13;102275.03;;;0.13;73.65
54270;BME280;40181;51.560;13.000;2023-02-28T07:26:43;102268.34;;;0.25;73.31
54270;BME280;40181;51.560;13.000;2023-02-28T07:29:12;102275.03;;;0.34;72.76
54270;BME280;40181;51.560;13.000;2023-02-28T07:31:41;102271.53;;;0.33;72.22
54270;BME280;40181;51.560;13.000;2023-02-28T07:34:11;102273.38;;;0.24;71.98
54270;BME280;40181;51.560;13.000;2023-02-28T07:36:43;102273.47;;;0.36;71.97
54270;BME280;40181;51.560;13.000;2023-02-28T07:39:12;102272.84;;;0.38;71.51
54270;BME280;40181;51.560;13.000;2023-02-28T07:41:41;102273.84;;;0.40;72.20
54270;BME280;40181;51.560;13.000;2023-02-28T07:44:11;102277.09;;;0.38;71.62
54270;BME280;40181;51.560;13.000;2023-02-28T07:46:40;102276.84;;;0.35;70.44
54270;BME280;40181;51.560;13.000;2023-02-28T07:49:09;102277.09;;;0.38;70.15
54270;BME280;40181;51.560;13.000;2023-02-28T07:51:38;102277.88;;;0.37;69.29
54270;BME280;40181;51.560;13.000;2023-02-28T07:54:10;102282.91;;;0.35;68.85
54270;BME280;40181;51.560;13.000;2023-02-28T07:56:39;102276.59;;;0.42;68.80
54270;BME280;40181;51.560;13.000;2023-02-28T07:59:08;102279.00;;;0.51;68.89
54270;BME280;40181;51.560;13.000;2023-02-28T08:01:37;102281.84;;;0.54;68.47
54270;BME280;40181;51.560;13.000;2023-02-28T08:04:06;102282.63;;;0.63;67.84
54270;BME280;40181;51.560;13.000;2023-02-28T08:06:35;102279.72;;;0.71;67.87
54270;BME280;40181;51.560;13.000;2023-02-28T08:09:04;102283.88;;;0.68;68.02
54270;BME280;40181;51.560;13.000;2023-02-28T08:11:36;102290.09;;;0.60;67.33
54270;BME280;40181;51.560;13.000;2023-02-28T08:14:05;102279.88;;;0.72;67.03
54270;BME280;40181;51.560;13.000;2023-02-28T08:16:34;102274.03;;;0.75;65.82
54270;BME280;40181;51.560;13.000;2023-02-28T08:19:04;102285.03;;;0.72;64.55
54270;BME280;40181;51.560;13.000;2023-02-28T08:21:33;102273.66;;;0.70;62.21
54270;BME280;40181;51.560;13.000;2023-02-28T08:24:02;102270.81;;;0.77;61.98
54270;BME280;40181;51.560;13.000;2023-02-28T08:26:31;102274.00;;;0.85;61.05
54270;BME280;40181;51.560;13.000;2023-02-28T08:29:03;102274.91;;;0.86;61.04
54270;BME280;40181;51.560;13.000;2023-02-28T08:31:32;102284.72;;;0.90;60.24
54270;BME280;40181;51.560;13.000;2023-02-28T08:34:05;102270.13;;;0.90;59.99
54270;BME280;40181;51.560;13.000;2023-02-28T08:36:34;102279.13;;;0.95;59.57
54270;BME280;40181;51.560;13.000;2023-02-28T08:39:04;102286.34;;;1.10;59.41
54270;BME280;40181;51.560;13.000;2023-02-28T08:41:34;102289.19;;;1.03;57.90
54270;BME280;40181;51.560;13.000;2023-02-28T08:44:06;102274.13;;;1.19;57.57
54270;BME280;40181;51.560;13.000;2023-02-28T08:46:35;102273.84;;;1.27;57.78
54270;BME280;40181;51.560;13.000;2023-02-28T08:49:05;102278.38;;;1.41;57.53
54270;BME280;40181;51.560;13.000;2023-02-28T08:51:34;102281.53;;;1.37;57.83
54270;BME280;40181;51.560;13.000;2023-02-28T08:54:04;102276.28;;;1.47;56.80
54270;BME280;40181;51.560;13.000;2023-02-28T08:56:33;102275.88;;;1.53;56.85
54270;BME280;40181;51.560;13.000;2023-02-28T08:59:02;102276.34;;;1.59;56.83
54270;BME280;40181;51.560;13.000;2023-02-28T09:01:34;102276.44;;;1.61;54.94
54270;BME280;40181;51.560;13.000;2023-02-28T09:04:03;102282.84;;;1.54;54.38
54270;BME280;40181;51.560;13.000;2023-02-28T09:06:34;102276.16;;;1.68;53.91
54270;BME280;40181;51.560;13.000;2023-02-28T09:09:03;102284.75;;;1.79;54.94
54270;BME280;40181;51.560;13.000;2023-02-28T09:11:33;102276.09;;;1.90;54.93
54270;BME280;40181;51.560;13.000;2023-02-28T09:14:05;102280.16;;;1.87;54.30
54270;BME280;40181;51.560;13.000;2023-02-28T09:16:35;102281.41;;;1.92;52.89
54270;BME280;40181;51.560;13.000;2023-02-28T09:19:04;102277.81;;;2.02;53.72
54270;BME280;40181;51.560;13.000;2023-02-28T09:21:33;102277.06;;;2.03;51.99
54270;BME280;40181;51.560;13.000;2023-02-28T09:24:03;102276.03;;;2.01;51.37
54270;BME280;40181;51.560;13.000;2023-02-28T09:26:32;102275.94;;;2.11;51.74
54270;BME280;40181;51.560;13.000;2023-02-28T09:29:02;102282.53;;;2.30;52.16
54270;BME280;40181;51.560;13.000;2023-02-28T09:31:34;102276.97;;;2.13;50.84
54270;BME280;40181;51.560;13.000;2023-02-28T09:34:04;102277.31;;;2.18;51.58
54270;BME280;40181;51.560;13.000;2023-02-28T09:36:33;102269.72;;;2.09;51.08
54270;BME280;40181;51.560;13.000;2023-02-28T09:39:05;102275.50;;;2.17;52.25
54270;BME280;40181;51.560;13.000;2023-02-28T09:41:38;102282.16;;;2.13;50.67
54270;BME280;40181;51.560;13.000;2023-02-28T09:44:16;102276.84;;;2.12;50.90
54270;BME280;40181;51.560;13.000;2023-02-28T09:46:57;102274.97;;;2.33;52.60
54270;BME280;40181;51.560;13.000;2023-02-28T09:49:34;102270.00;;;2.48;51.89
54270;BME280;40181;51.560;13.000;2023-02-28T09:52:10;102272.38;;;2.33;50.78
54270;BME280;40181;51.560;13.000;2023-02-28T09:54:42;102274.19;;;2.46;51.30
54270;BME280;40181;51.560;13.000;2023-02-28T09:57:17;102268.22;;;2.59;51.08
54270;BME280;40181;51.560;13.000;2023-02-28T09:59:59;102272.16;;;2.78;52.03
54270;BME280;40181;51.560;13.000;2023-02-28T10:02:54;102268.19;;;2.95;53.53
54270;BME280;40181;51.560;13.000;2023-02-28T10:05:33;102275.56;;;2.76;49.87
54270;BME280;40181;51.560;13.000;2023-02-28T10:08:12;102278.56;;;2.83;50.88
54270;BME280;40181;51.560;13.000;2023-02-28T10:10:44;102276.22;;;2.74;49.91
54270;BME280;40181;51.560;13.000;2023-02-28T10:13:20;102268.78;;;2.79;50.16
54270;BME280;40181;51.560;13.000;2023-02-28T10:15:56;102268.97;;;2.82;49.60
54270;BME280;40181;51.560;13.000;2023-02-28T10:18:34;102267.25;;;3.06;50.87
54270;BME280;40181;51.560;13.000;2023-02-28T10:21:15;102261.88;;;2.91;50.01
54270;BME280;40181;51.560;13.000;2023-02-28T10:23:48;102267.22;;;3.18;51.20
54270;BME280;40181;51.560;13.000;2023-02-28T10:26:17;102273.00;;;3.14;49.96
54270;BME280;40181;51.560;13.000;2023-02-28T10:28:47;102262.47;;;3.24;49.95
54270;BME280;40181;51.560;13.000;2023-02-28T10:31:18;102268.81;;;3.28;50.64
54270;BME280;40181;51.560;13.000;2023-02-28T10:33:50;102257.97;;;3.22;49.73
54270;BME280;40181;51.560;13.000;2023-02-28T10:36:20;102260.53;;;3.34;50.53
54270;BME280;40181;51.560;13.000;2023-02-28T10:38:51;102256.38;;;3.24;49.21
54270;BME280;40181;51.560;13.000;2023-02-28T10:41:28;102256.31;;;3.48;50.91
54270;BME280;40181;51.560;13.000;2023-02-28T10:44:16;102243.19;;;3.46;49.78
54270;BME280;40181;51.560;13.000;2023-02-28T10:46:49;102250.94;;;3.32;49.61
54270;BME280;40181;51.560;13.000;2023-02-28T10:49:23;102240.81;;;3.49;50.38
54270;BME280;40181;51.560;13.000;2023-02-28T10:51:55;102237.59;;;3.65;49.57
54270;BME280;40181;51.560;13.000;2023-02-28T10:54:29;102241.78;;;3.63;49.24
54270;BME280;40181;51.560;13.000;2023-02-28T10:57:09;102236.72;;;3.65;49.32
54270;BME280;40181;51.560;13.000;2023-02-28T10:59:45;102232.34;;;3.77;49.54
54270;BME280;40181;51.560;13.000;2023-02-28T11:02:33;102237.09;;;3.71;48.88
54270;BME280;40181;51.560;13.000;2023-02-28T11:05:27;102240.94;;;3.90;49.25
54270;BME280;40181;51.560;13.000;2023-02-28T11:08:04;102234.19;;;3.66;47.07
54270;BME280;40181;51.560;13.000;2023-02-28T11:10:44;102227.44;;;3.82;48.74
54270;BME280;40181;51.560;13.000;2023-02-28T11:13:17;102220.38;;;3.93;49.86
54270;BME280;40181;51.560;13.000;2023-02-28T11:15:52;102229.19;;;3.95;48.27
54270;BME280;40181;51.560;13.000;2023-02-28T11:18:25;102228.31;;;4.21;48.86
54270;BME280;40181;51.560;13.000;2023-02-28T11:21:01;102221.13;;;4.31;49.06
54270;BME280;40181;51.560;13.000;2023-02-28T11:23:34;102224.75;;;4.33;48.97
54270;BME280;40181;51.560;13.000;2023-02-28T11:26:05;102229.72;;;4.56;48.90
54270;BME280;40181;51.560;13.000;2023-02-28T11:28:38;102221.53;;;4.37;47.57
54270;BME280;40181;51.560;13.000;2023-02-28T11:31:18;102229.59;;;4.01;47.20
54270;BME280;40181;51.560;13.000;2023-02-28T11:33:49;102235.41;;;4.24;47.15
54270;BME280;40181;51.560;13.000;2023-02-28T11:36:23;102230.25;;;4.37;47.63
54270;BME280;40181;51.560;13.000;2023-02-28T11:38:55;102230.84;;;4.47;47.44
54270;BME280;40181;51.560;13.000;2023-02-28T11:41:34;102228.63;;;4.39;46.83
54270;BME280;40181;51.560;13.000;2023-02-28T11:44:21;102223.53;;;4.27;46.50
54270;BME280;40181;51.560;13.000;2023-02-28T11:47:00;102225.50;;;4.59;47.13
54270;BME280;40181;51.560;13.000;2023-02-28T11:49:38;102216.56;;;4.95;49.31
54270;BME280;40181;51.560;13.000;2023-02-28T11:52:21;102216.09;;;5.16;47.91
54270;BME280;40181;51.560;13.000;2023-02-28T11:55:13;102207.59;;;5.19;47.49
54270;BME280;40181;51.560;13.000;2023-02-28T11:57:55;102209.72;;;5.11;46.67
54270;BME280;40181;51.560;13.000;2023-02-28T12:00:43;102202.53;;;5.35;45.36
54270;BME280;40181;51.560;13.000;2023-02-28T12:03:35;102188.78;;;5.38;44.98
54270;BME280;40181;51.560;13.000;2023-02-28T12:06:18;102192.56;;;5.43;45.42
54270;BME280;40181;51.560;13.000;2023-02-28T12:09:03;102197.88;;;5.45;45.59
54270;BME280;40181;51.560;13.000;2023-02-28T12:11:50;102190.56;;;5.82;45.96
54270;BME280;40181;51.560;13.000;2023-02-28T12:14:31;102192.09;;;5.79;45.55
54270;BME280;40181;51.560;13.000;2023-02-28T12:17:39;102187.84;;;5.81;46.25
54270;BME280;40181;51.560;13.000;2023-02-28T12:20:21;102185.69;;;5.74;45.47
54270;BME280;40181;51.560;13.000;2023-02-28T12:23:01;102188.50;;;5.77;45.69
54270;BME280;40181;51.560;13.000;2023-02-28T12:26:08;102188.38;;;5.75;44.50
54270;BME280;40181;51.560;13.000;2023-02-28T12:28:46;102186.50;;;5.29;44.91
54270;BME280;40181;51.560;13.000;2023-02-28T12:31:20;102179.53;;;5.43;45.77
54270;BME280;40181;51.560;13.000;2023-02-28T12:33:53;102176.44;;;5.64;44.45
54270;BME280;40181;51.560;13.000;2023-02-28T12:36:23;102178.66;;;5.88;44.27
54270;BME280;40181;51.560;13.000;2023-02-28T12:38:56;102167.63;;;6.22;46.07
54270;BME280;40181;51.560;13.000;2023-02-28T12:41:36;102167.00;;;6.11;44.75
54270;BME280;40181;51.560;13.000;2023-02-28T12:44:11;102162.31;;;6.35;45.51
54270;BME280;40181;51.560;13.000;2023-02-28T12:46:46;102162.22;;;5.89;44.05
54270;BME280;40181;51.560;13.000;2023-02-28T12:49:22;102154.47;;;6.35;45.91
54270;BME280;40181;51.560;13.000;2023-02-28T12:51:56;102160.81;;;6.09;44.13
54270;BME280;40181;51.560;13.000;2023-02-28T12:54:30;102156.53;;;6.41;44.94
54270;BME280;40181;51.560;13.000;2023-02-28T12:57:12;102153.97;;;6.26;44.08
54270;BME280;40181;51.560;13.000;2023-02-28T12:59:50;102146.94;;;5.80;43.95
54270;BME280;40181;51.560;13.000;2023-02-28T13:06:00;102156.72;;;5.84;44.41
54270;BME280;40181;51.560;13.000;2023-02-28T13:08:59;102156.28;;;6.36;45.92
54270;BME280;40181;51.560;13.000;2023-02-28T13:11:39;102154.22;;;6.31;45.27
54270;BME280;40181;51.560;13.000;2023-02-28T13:14:25;102159.63;;;6.19;44.38
54270;BME280;40181;51.560;13.000;2023-02-28T13:16:59;102142.59;;;5.80;43.98
54270;BME280;40181;51.560;13.000;2023-02-28T13:19:31;102150.41;;;5.80;44.20
54270;BME280;40181;51.560;13.000;2023-02-28T13:22:03;102151.94;;;5.62;44.21
54270;BME280;40181;51.560;13.000;2023-02-28T13:24:43;102134.59;;;5.77;44.46
54270;BME280;40181;51.560;13.000;2023-02-28T13:27:32;102141.19;;;5.86;45.21
54270;BME280;40181;51.560;13.000;2023-02-28T13:33:32;102142.97;;;5.72;44.24
54270;BME280;40181;51.560;13.000;2023-02-28T13:36:25;102143.44;;;5.94;44.05
54270;BME280;40181;51.560;13.000;2023-02-28T13:38:56;102133.53;;;6.19;44.81
54270;BME280;40181;51.560;13.000;2023-02-28T13:41:46;102130.09;;;6.20;44.40